sensor_id;sensor_type;location;lat;lon;timestamp;P1;durP1;ratioP1;P2;durP2;ratioP2
61523;SDS011;47393;38.758;-9.164;2023-02-28T00:00:53;11.70;;;4.53;;
61523;SDS011;47393;38.758;-9.164;2023-02-28T00:02:55;7.30;;;5.07;;
61523;SDS011;47393;38.758;-9.164;2023-02-28T00:04:58;21.10;;;5.00;;
61523;SDS011;47393;38.758;-9.164;2023-02-28T00:07:01;11.90;;;4.68;;
61523;SDS011;47393;38.758;-9.164;2023-02-28T00:09:08;17.75;;;5.18;;
61523;SDS011;47393;38.758;-9.164;2023-02-28T00:11:11;9.45;;;3.97;;
61523;SDS011;47393;38.758;-9.164;2023-02-28T00:13:13;7.90;;;4.57;;
61523;SDS011;47393;38.758;-9.164;2023-02-28T00:15:15;14.73;;;4.60;;
61523;SDS011;47393;38.758;-9.164;2023-02-28T00:17:18;19.87;;;5.13;;
61523;SDS011;47393;38.758;-9.164;2023-02-28T00:19:22;12.57;;;4.70;;
61523;SDS011;47393;38.758;-9.164;2023-02-28T00:21:25;13.32;;;3.50;;
61523;SDS011;47393;38.758;-9.164;2023-02-28T00:23:27;14.05;;;4.25;;
61523;SDS011;47393;38.758;-9.164;2023-02-28T00:25:30;6.68;;;4.40;;
61523;SDS011;47393;38.758;-9.164;2023-02-28T00:27:33;7.82;;;3.92;;
61523;SDS011;47393;38.758;-9.164;2023-02-28T00:29:34;9.77;;;4.10;;
61523;SDS011;47393;38.758;-9.164;2023-02-28T00:31:35;16.35;;;4.65;;
61523;SDS011;47393;38.758;-9.164;2023-02-28T00:33:38;17.10;;;4.63;;
61523;SDS011;47393;38.758;-9.164;2023-02-28T00:35:38;6.30;;;4.13;;
61523;SDS011;47393;38.758;-9.164;2023-02-28T00:37:43;15.55;;;4.93;;
61523;SDS011;47393;38.758;-9.164;2023-02-28T00:39:45;7.18;;;3.63;;
61523;SDS011;47393;38.758;-9.164;2023-02-28T00:41:47;15.15;;;4.35;;
61523;SDS011;47393;38.758;-9.164;2023-02-28T00:43:48;11.13;;;4.85;;
61523;SDS011;47393;38.758;-9.164;2023-02-28T00:45:57;11.48;;;4.85;;
61523;SDS011;47393;38.758;-9.164;2023-02-28T00:47:58;13.63;;;5.28;;
61523;SDS011;47393;38.758;-9.164;2023-02-28T00:50:00;14.00;;;4.28;;
61523;SDS011;47393;38.758;-9.164;2023-02-28T00:52:08;15.70;;;5.22;;
61523;SDS011;47393;38.758;-9.164;2023-02-28T00:54:10;10.38;;;4.78;;
61523;SDS011;47393;38.758;-9.164;2023-02-28T00:56:11;11.00;;;4.05;;
61523;SDS011;47393;38.758;-9.164;2023-02-28T00:58:12;8.50;;;4.43;;
61523;SDS011;47393;38.758;-9.164;2023-02-28T01:00:14;10.43;;;3.90;;
61523;SDS011;47393;38.758;-9.164;2023-02-28T01:02:16;17.73;;;4.78;;
61523;SDS011;47393;38.758;-9.164;2023-02-28T01:04:22;18.83;;;5.38;;
61523;SDS011;47393;38.758;-9.164;2023-02-28T01:06:23;9.20;;;5.25;;
61523;SDS011;47393;38.758;-9.164;2023-02-28T01:08:24;15.25;;;4.53;;
61523;SDS011;47393;38.758;-9.164;2023-02-28T01:10:27;15.32;;;5.65;;
61523;SDS011;47393;38.758;-9.164;2023-02-28T01:12:34;8.30;;;5.45;;
61523;SDS011;47393;38.758;-9.164;2023-02-28T01:14:35;10.30;;;5.23;;
61523;SDS011;47393;38.758;-9.164;2023-02-28T01:16:42;10.95;;;5.43;;
61523;SDS011;47393;38.758;-9.164;2023-02-28T01:18:50;16.45;;;6.22;;
61523;SDS011;47393;38.758;-9.164;2023-02-28T01:20:53;12.25;;;4.88;;
61523;SDS011;47393;38.758;-9.164;2023-02-28T01:22:56;9.27;;;5.30;;
61523;SDS011;47393;38.758;-9.164;2023-02-28T01:25:03;13.10;;;5.07;;
61523;SDS011;47393;38.758;-9.164;2023-02-28T01:27:06;13.85;;;5.65;;
61523;SDS011;47393;38.758;-9.164;2023-02-28T01:29:07;9.82;;;4.70;;
61523;SDS011;47393;38.758;-9.164;2023-02-28T01:31:08;11.35;;;5.05;;
61523;SDS011;47393;38.758;-9.164;2023-02-28T01:33:11;12.15;;;4.95;;
61523;SDS011;47393;38.758;-9.164;2023-02-28T01:35:13;7.20;;;4.85;;
61523;SDS011;47393;38.758;-9.164;2023-02-28T01:37:18;10.68;;;4.68;;
61523;SDS011;47393;38.758;-9.164;2023-02-28T01:39:19;10.10;;;5.03;;
61523;SDS011;47393;38.758;-9.164;2023-02-28T01:41:22;8.95;;;5.25;;
61523;SDS011;47393;38.758;-9.164;2023-02-28T01:45:29;19.65;;;5.82;;
61523;SDS011;47393;38.758;-9.164;2023-02-28T01:47:36;23.55;;;6.15;;
61523;SDS011;47393;38.758;-9.164;2023-02-28T01:49:39;13.02;;;5.45;;
61523;SDS011;47393;38.758;-9.164;2023-02-28T01:51:48;16.92;;;5.90;;
61523;SDS011;47393;38.758;-9.164;2023-02-28T01:53:57;11.20;;;5.88;;
61523;SDS011;47393;38.758;-9.164;2023-02-28T01:56:03;12.68;;;6.00;;
61523;SDS011;47393;38.758;-9.164;2023-02-28T01:58:06;14.55;;;6.10;;
61523;SDS011;47393;38.758;-9.164;2023-02-28T02:00:13;13.20;;;5.85;;
61523;SDS011;47393;38.758;-9.164;2023-02-28T02:02:20;18.08;;;7.22;;
61523;SDS011;47393;38.758;-9.164;2023-02-28T02:04:23;13.18;;;6.47;;
61523;SDS011;47393;38.758;-9.164;2023-02-28T02:06:26;8.77;;;6.25;;
61523;SDS011;47393;38.758;-9.164;2023-02-28T02:08:30;10.50;;;6.38;;
61523;SDS011;47393;38.758;-9.164;2023-02-28T02:10:35;19.38;;;6.25;;
61523;SDS011;47393;38.758;-9.164;2023-02-28T02:12:49;5.90;;;5.43;;
61523;SDS011;47393;38.758;-9.164;2023-02-28T02:17:07;17.27;;;6.97;;
61523;SDS011;47393;38.758;-9.164;2023-02-28T02:21:54;6.60;;;5.68;;
61523;SDS011;47393;38.758;-9.164;2023-02-28T02:24:03;22.98;;;6.55;;
61523;SDS011;47393;38.758;-9.164;2023-02-28T02:34:44;14.52;;;6.82;;
61523;SDS011;47393;38.758;-9.164;2023-02-28T02:37:36;14.55;;;7.10;;
61523;SDS011;47393;38.758;-9.164;2023-02-28T02:41:48;14.38;;;6.78;;
61523;SDS011;47393;38.758;-9.164;2023-02-28T02:43:51;9.85;;;6.00;;
61523;SDS011;47393;38.758;-9.164;2023-02-28T02:46:09;14.70;;;6.75;;
61523;SDS011;47393;38.758;-9.164;2023-02-28T02:48:13;14.27;;;6.43;;
61523;SDS011;47393;38.758;-9.164;2023-02-28T02:53:29;7.63;;;5.95;;
61523;SDS011;47393;38.758;-9.164;2023-02-28T02:56:10;17.00;;;6.60;;
61523;SDS011;47393;38.758;-9.164;2023-02-28T02:58:20;19.27;;;6.90;;
61523;SDS011;47393;38.758;-9.164;2023-02-28T03:00:30;12.65;;;6.93;;
61523;SDS011;47393;38.758;-9.164;2023-02-28T03:02:33;21.42;;;8.40;;
61523;SDS011;47393;38.758;-9.164;2023-02-28T03:04:40;18.15;;;7.25;;
61523;SDS011;47393;38.758;-9.164;2023-02-28T03:06:45;14.80;;;7.15;;
61523;SDS011;47393;38.758;-9.164;2023-02-28T03:08:46;19.35;;;6.65;;
61523;SDS011;47393;38.758;-9.164;2023-02-28T03:10:50;19.75;;;7.28;;
61523;SDS011;47393;38.758;-9.164;2023-02-28T03:12:56;21.05;;;7.22;;
61523;SDS011;47393;38.758;-9.164;2023-02-28T03:21:36;8.15;;;6.85;;
61523;SDS011;47393;38.758;-9.164;2023-02-28T03:23:42;20.30;;;7.63;;
61523;SDS011;47393;38.758;-9.164;2023-02-28T03:25:54;29.27;;;7.63;;
61523;SDS011;47393;38.758;-9.164;2023-02-28T03:28:00;29.48;;;7.85;;
61523;SDS011;47393;38.758;-9.164;2023-02-28T03:30:19;14.25;;;6.55;;
61523;SDS011;47393;38.758;-9.164;2023-02-28T03:32:25;13.90;;;7.35;;
61523;SDS011;47393;38.758;-9.164;2023-02-28T03:36:37;16.90;;;7.75;;
61523;SDS011;47393;38.758;-9.164;2023-02-28T03:39:01;11.82;;;8.20;;
61523;SDS011;47393;38.758;-9.164;2023-02-28T03:41:25;17.77;;;7.30;;
61523;SDS011;47393;38.758;-9.164;2023-02-28T03:43:34;12.85;;;8.35;;
61523;SDS011;47393;38.758;-9.164;2023-02-28T03:45:38;27.58;;;8.35;;
61523;SDS011;47393;38.758;-9.164;2023-02-28T03:49:48;17.98;;;9.23;;
61523;SDS011;47393;38.758;-9.164;2023-02-28T03:51:52;17.95;;;8.48;;
61523;SDS011;47393;38.758;-9.164;2023-02-28T03:53:57;14.85;;;8.93;;
61523;SDS011;47393;38.758;-9.164;2023-02-28T03:56:01;23.33;;;9.63;;
61523;SDS011;47393;38.758;-9.164;2023-02-28T03:58:20;21.92;;;9.52;;
61523;SDS011;47393;38.758;-9.164;2023-02-28T04:02:29;15.25;;;9.73;;
61523;SDS011;47393;38.758;-9.164;2023-02-28T04:04:33;13.90;;;9.02;;
61523;SDS011;47393;38.758;-9.164;2023-02-28T04:06:34;17.38;;;8.15;;
61523;SDS011;47393;38.758;-9.164;2023-02-28T04:08:41;20.45;;;9.00;;
61523;SDS011;47393;38.758;-9.164;2023-02-28T04:10:42;17.02;;;8.85;;
61523;SDS011;47393;38.758;-9.164;2023-02-28T04:12:52;12.52;;;8.07;;
61523;SDS011;47393;38.758;-9.164;2023-02-28T04:15:18;17.90;;;8.93;;
61523;SDS011;47393;38.758;-9.164;2023-02-28T04:17:27;28.17;;;10.07;;
61523;SDS011;47393;38.758;-9.164;2023-02-28T04:23:38;17.63;;;8.40;;
61523;SDS011;47393;38.758;-9.164;2023-02-28T04:28:20;12.68;;;6.95;;
61523;SDS011;47393;38.758;-9.164;2023-02-28T04:30:22;15.88;;;6.88;;
61523;SDS011;47393;38.758;-9.164;2023-02-28T04:32:23;13.60;;;8.38;;
61523;SDS011;47393;38.758;-9.164;2023-02-28T04:34:25;20.85;;;8.75;;
61523;SDS011;47393;38.758;-9.164;2023-02-28T04:36:27;26.80;;;8.43;;
61523;SDS011;47393;38.758;-9.164;2023-02-28T04:38:40;15.27;;;7.30;;
61523;SDS011;47393;38.758;-9.164;2023-02-28T04:40:42;11.75;;;6.35;;
61523;SDS011;47393;38.758;-9.164;2023-02-28T04:42:50;16.77;;;7.43;;
61523;SDS011;47393;38.758;-9.164;2023-02-28T04:44:55;14.50;;;8.40;;
61523;SDS011;47393;38.758;-9.164;2023-02-28T04:47:09;12.00;;;7.18;;
61523;SDS011;47393;38.758;-9.164;2023-02-28T04:49:15;17.77;;;7.43;;
61523;SDS011;47393;38.758;-9.164;2023-02-28T04:51:20;35.47;;;9.45;;
61523;SDS011;47393;38.758;-9.164;2023-02-28T04:53:24;12.15;;;6.80;;
61523;SDS011;47393;38.758;-9.164;2023-02-28T04:55:38;18.88;;;8.13;;
61523;SDS011;47393;38.758;-9.164;2023-02-28T05:07:28;14.43;;;6.45;;
61523;SDS011;47393;38.758;-9.164;2023-02-28T05:09:29;12.55;;;7.30;;
61523;SDS011;47393;38.758;-9.164;2023-02-28T05:12:08;13.38;;;7.03;;
61523;SDS011;47393;38.758;-9.164;2023-02-28T05:15:01;13.25;;;6.88;;
61523;SDS011;47393;38.758;-9.164;2023-02-28T05:17:30;8.18;;;6.50;;
61523;SDS011;47393;38.758;-9.164;2023-02-28T05:19:55;7.57;;;5.63;;
61523;SDS011;47393;38.758;-9.164;2023-02-28T05:22:01;15.07;;;5.97;;
61523;SDS011;47393;38.758;-9.164;2023-02-28T05:24:30;28.05;;;6.43;;
61523;SDS011;47393;38.758;-9.164;2023-02-28T05:27:03;18.38;;;6.43;;
61523;SDS011;47393;38.758;-9.164;2023-02-28T05:29:05;10.23;;;6.47;;
61523;SDS011;47393;38.758;-9.164;2023-02-28T05:31:10;9.63;;;6.88;;
61523;SDS011;47393;38.758;-9.164;2023-02-28T05:33:11;10.18;;;6.00;;
61523;SDS011;47393;38.758;-9.164;2023-02-28T05:35:12;16.55;;;6.28;;
61523;SDS011;47393;38.758;-9.164;2023-02-28T05:37:13;16.85;;;6.03;;
61523;SDS011;47393;38.758;-9.164;2023-02-28T05:39:15;13.60;;;6.55;;
61523;SDS011;47393;38.758;-9.164;2023-02-28T05:41:16;12.35;;;6.38;;
61523;SDS011;47393;38.758;-9.164;2023-02-28T05:43:17;10.48;;;7.13;;
61523;SDS011;47393;38.758;-9.164;2023-02-28T05:45:18;10.60;;;5.20;;
61523;SDS011;47393;38.758;-9.164;2023-02-28T05:47:18;7.43;;;6.03;;
61523;SDS011;47393;38.758;-9.164;2023-02-28T05:49:20;13.57;;;6.13;;
61523;SDS011;47393;38.758;-9.164;2023-02-28T05:51:21;12.93;;;5.32;;
61523;SDS011;47393;38.758;-9.164;2023-02-28T05:53:22;10.20;;;5.78;;
61523;SDS011;47393;38.758;-9.164;2023-02-28T05:55:24;8.38;;;5.72;;
61523;SDS011;47393;38.758;-9.164;2023-02-28T05:57:26;10.95;;;5.25;;
61523;SDS011;47393;38.758;-9.164;2023-02-28T05:59:28;13.25;;;5.80;;
61523;SDS011;47393;38.758;-9.164;2023-02-28T06:01:34;8.32;;;5.68;;
61523;SDS011;47393;38.758;-9.164;2023-02-28T06:03:46;11.43;;;5.03;;
61523;SDS011;47393;38.758;-9.164;2023-02-28T06:05:48;8.50;;;5.68;;
61523;SDS011;47393;38.758;-9.164;2023-02-28T06:07:52;15.60;;;6.78;;
61523;SDS011;47393;38.758;-9.164;2023-02-28T06:09:53;8.02;;;4.50;;
61523;SDS011;47393;38.758;-9.164;2023-02-28T06:11:57;13.65;;;6.07;;
61523;SDS011;47393;38.758;-9.164;2023-02-28T06:13:59;15.50;;;5.20;;
61523;SDS011;47393;38.758;-9.164;2023-02-28T06:16:01;6.95;;;3.90;;
61523;SDS011;47393;38.758;-9.164;2023-02-28T06:18:01;6.15;;;3.85;;
61523;SDS011;47393;38.758;-9.164;2023-02-28T06:20:04;16.58;;;4.18;;
61523;SDS011;47393;38.758;-9.164;2023-02-28T06:22:06;4.00;;;3.65;;
61523;SDS011;47393;38.758;-9.164;2023-02-28T06:24:07;10.88;;;4.40;;
61523;SDS011;47393;38.758;-9.164;2023-02-28T06:26:08;14.88;;;3.50;;
61523;SDS011;47393;38.758;-9.164;2023-02-28T06:28:09;5.03;;;2.97;;
61523;SDS011;47393;38.758;-9.164;2023-02-28T06:30:11;12.10;;;4.50;;
61523;SDS011;47393;38.758;-9.164;2023-02-28T06:32:12;7.85;;;3.90;;
61523;SDS011;47393;38.758;-9.164;2023-02-28T06:34:13;9.63;;;3.95;;
61523;SDS011;47393;38.758;-9.164;2023-02-28T06:36:15;16.88;;;3.80;;
61523;SDS011;47393;38.758;-9.164;2023-02-28T06:38:16;4.18;;;3.40;;
61523;SDS011;47393;38.758;-9.164;2023-02-28T06:40:18;4.75;;;3.05;;
61523;SDS011;47393;38.758;-9.164;2023-02-28T06:42:19;3.00;;;2.38;;
61523;SDS011;47393;38.758;-9.164;2023-02-28T06:44:22;14.15;;;3.75;;
61523;SDS011;47393;38.758;-9.164;2023-02-28T06:46:22;3.92;;;3.25;;
61523;SDS011;47393;38.758;-9.164;2023-02-28T06:48:23;5.60;;;2.58;;
61523;SDS011;47393;38.758;-9.164;2023-02-28T06:50:24;8.23;;;3.28;;
61523;SDS011;47393;38.758;-9.164;2023-02-28T06:52:26;6.63;;;2.85;;
61523;SDS011;47393;38.758;-9.164;2023-02-28T06:54:27;5.80;;;3.28;;
61523;SDS011;47393;38.758;-9.164;2023-02-28T06:56:27;9.85;;;3.08;;
61523;SDS011;47393;38.758;-9.164;2023-02-28T06:58:29;5.05;;;2.97;;
61523;SDS011;47393;38.758;-9.164;2023-02-28T07:00:30;4.22;;;3.03;;
61523;SDS011;47393;38.758;-9.164;2023-02-28T07:02:34;19.02;;;2.78;;
61523;SDS011;47393;38.758;-9.164;2023-02-28T07:04:35;3.08;;;2.80;;
61523;SDS011;47393;38.758;-9.164;2023-02-28T07:06:37;16.92;;;2.88;;
61523;SDS011;47393;38.758;-9.164;2023-02-28T07:08:38;5.07;;;2.22;;
61523;SDS011;47393;38.758;-9.164;2023-02-28T07:10:45;9.40;;;2.60;;
61523;SDS011;47393;38.758;-9.164;2023-02-28T07:12:49;4.40;;;1.92;;
61523;SDS011;47393;38.758;-9.164;2023-02-28T07:15:05;3.00;;;1.98;;
61523;SDS011;47393;38.758;-9.164;2023-02-28T07:17:10;3.35;;;2.55;;
61523;SDS011;47393;38.758;-9.164;2023-02-28T07:19:20;3.35;;;3.15;;
61523;SDS011;47393;38.758;-9.164;2023-02-28T07:21:36;11.43;;;2.88;;
61523;SDS011;47393;38.758;-9.164;2023-02-28T07:24:05;9.13;;;1.77;;
61523;SDS011;47393;38.758;-9.164;2023-02-28T07:26:13;2.45;;;2.35;;
61523;SDS011;47393;38.758;-9.164;2023-02-28T07:28:45;2.28;;;1.92;;
61523;SDS011;47393;38.758;-9.164;2023-02-28T07:34:13;17.98;;;2.47;;
61523;SDS011;47393;38.758;-9.164;2023-02-28T07:52:55;17.52;;;3.83;;
61523;SDS011;47393;38.758;-9.164;2023-02-28T07:58:23;8.48;;;2.50;;
61523;SDS011;47393;38.758;-9.164;2023-02-28T08:03:48;5.75;;;2.30;;
61523;SDS011;47393;38.758;-9.164;2023-02-28T08:05:52;31.00;;;3.95;;
61523;SDS011;47393;38.758;-9.164;2023-02-28T08:07:56;6.53;;;3.13;;
61523;SDS011;47393;38.758;-9.164;2023-02-28T08:09:58;6.72;;;2.85;;
61523;SDS011;47393;38.758;-9.164;2023-02-28T08:12:02;10.88;;;2.83;;
61523;SDS011;47393;38.758;-9.164;2023-02-28T08:14:06;8.30;;;2.58;;
61523;SDS011;47393;38.758;-9.164;2023-02-28T08:16:09;2.42;;;2.22;;
61523;SDS011;47393;38.758;-9.164;2023-02-28T08:18:14;12.30;;;2.63;;
61523;SDS011;47393;38.758;-9.164;2023-02-28T08:20:16;6.82;;;2.45;;
61523;SDS011;47393;38.758;-9.164;2023-02-28T08:22:17;3.13;;;2.08;;
61523;SDS011;47393;38.758;-9.164;2023-02-28T08:24:18;2.30;;;2.10;;
61523;SDS011;47393;38.758;-9.164;2023-02-28T08:26:21;5.35;;;2.55;;
61523;SDS011;47393;38.758;-9.164;2023-02-28T08:28:27;3.53;;;2.10;;
61523;SDS011;47393;38.758;-9.164;2023-02-28T08:30:31;5.18;;;2.33;;
61523;SDS011;47393;38.758;-9.164;2023-02-28T08:32:35;2.28;;;2.10;;
61523;SDS011;47393;38.758;-9.164;2023-02-28T08:34:41;3.05;;;2.38;;
61523;SDS011;47393;38.758;-9.164;2023-02-28T08:36:51;4.05;;;2.03;;
61523;SDS011;47393;38.758;-9.164;2023-02-28T08:38:58;14.98;;;2.47;;
61523;SDS011;47393;38.758;-9.164;2023-02-28T08:44:49;10.35;;;2.97;;
61523;SDS011;47393;38.758;-9.164;2023-02-28T08:48:12;7.43;;;2.95;;
61523;SDS011;47393;38.758;-9.164;2023-02-28T09:03:03;22.13;;;3.25;;
61523;SDS011;47393;38.758;-9.164;2023-02-28T09:05:42;2.78;;;2.53;;
61523;SDS011;47393;38.758;-9.164;2023-02-28T09:08:21;11.85;;;2.70;;
61523;SDS011;47393;38.758;-9.164;2023-02-28T09:24:53;6.05;;;2.22;;
61523;SDS011;47393;38.758;-9.164;2023-02-28T09:27:42;7.85;;;2.00;;
61523;SDS011;47393;38.758;-9.164;2023-02-28T09:36:21;28.85;;;2.60;;
61523;SDS011;47393;38.758;-9.164;2023-02-28T09:41:11;3.60;;;1.98;;
61523;SDS011;47393;38.758;-9.164;2023-02-28T09:43:16;9.00;;;2.05;;
61523;SDS011;47393;38.758;-9.164;2023-02-28T09:45:28;5.53;;;2.28;;
61523;SDS011;47393;38.758;-9.164;2023-02-28T09:47:54;14.20;;;2.88;;
61523;SDS011;47393;38.758;-9.164;2023-02-28T09:52:34;3.75;;;2.20;;
61523;SDS011;47393;38.758;-9.164;2023-02-28T09:55:15;10.20;;;2.10;;
61523;SDS011;47393;38.758;-9.164;2023-02-28T09:57:37;3.72;;;2.45;;
61523;SDS011;47393;38.758;-9.164;2023-02-28T09:59:59;10.25;;;1.55;;
61523;SDS011;47393;38.758;-9.164;2023-02-28T10:04:38;2.92;;;2.08;;
61523;SDS011;47393;38.758;-9.164;2023-02-28T10:06:51;18.17;;;3.20;;
61523;SDS011;47393;38.758;-9.164;2023-02-28T10:09:30;14.93;;;2.67;;
61523;SDS011;47393;38.758;-9.164;2023-02-28T10:14:05;9.50;;;1.88;;
61523;SDS011;47393;38.758;-9.164;2023-02-28T10:16:13;7.18;;;2.63;;
61523;SDS011;47393;38.758;-9.164;2023-02-28T10:21:26;16.83;;;2.70;;
61523;SDS011;47393;38.758;-9.164;2023-02-28T10:23:35;4.32;;;2.38;;
61523;SDS011;47393;38.758;-9.164;2023-02-28T10:26:11;33.55;;;3.83;;
61523;SDS011;47393;38.758;-9.164;2023-02-28T10:28:18;11.30;;;2.20;;
61523;SDS011;47393;38.758;-9.164;2023-02-28T10:30:35;11.70;;;2.35;;
61523;SDS011;47393;38.758;-9.164;2023-02-28T10:32:58;11.55;;;2.63;;
61523;SDS011;47393;38.758;-9.164;2023-02-28T10:37:49;9.57;;;2.53;;
61523;SDS011;47393;38.758;-9.164;2023-02-28T10:42:35;20.40;;;2.63;;
61523;SDS011;47393;38.758;-9.164;2023-02-28T10:48:26;20.45;;;3.05;;
61523;SDS011;47393;38.758;-9.164;2023-02-28T11:01:19;17.15;;;2.97;;
61523;SDS011;47393;38.758;-9.164;2023-02-28T11:03:34;12.82;;;2.85;;
61523;SDS011;47393;38.758;-9.164;2023-02-28T11:12:34;24.17;;;4.60;;
61523;SDS011;47393;38.758;-9.164;2023-02-28T11:20:05;4.80;;;3.03;;
61523;SDS011;47393;38.758;-9.164;2023-02-28T11:22:23;15.80;;;3.83;;
61523;SDS011;47393;38.758;-9.164;2023-02-28T11:24:40;5.07;;;2.88;;
61523;SDS011;47393;38.758;-9.164;2023-02-28T11:26:45;99.22;;;7.32;;
61523;SDS011;47393;38.758;-9.164;2023-02-28T11:31:20;15.70;;;2.78;;
61523;SDS011;47393;38.758;-9.164;2023-02-28T11:33:27;10.85;;;2.83;;
61523;SDS011;47393;38.758;-9.164;2023-02-28T11:35:33;9.68;;;3.63;;
61523;SDS011;47393;38.758;-9.164;2023-02-28T11:37:46;15.48;;;3.17;;
61523;SDS011;47393;38.758;-9.164;2023-02-28T11:39:49;8.82;;;2.92;;
61523;SDS011;47393;38.758;-9.164;2023-02-28T11:53:17;10.88;;;3.40;;
61523;SDS011;47393;38.758;-9.164;2023-02-28T12:03:16;8.20;;;2.83;;
61523;SDS011;47393;38.758;-9.164;2023-02-28T12:07:38;11.63;;;3.63;;
61523;SDS011;47393;38.758;-9.164;2023-02-28T12:11:58;13.50;;;3.63;;
61523;SDS011;47393;38.758;-9.164;2023-02-28T12:23:10;6.25;;;3.05;;
61523;SDS011;47393;38.758;-9.164;2023-02-28T12:25:24;6.68;;;3.05;;
61523;SDS011;47393;38.758;-9.164;2023-02-28T12:27:54;6.95;;;3.00;;
61523;SDS011;47393;38.758;-9.164;2023-02-28T12:32:13;5.93;;;2.60;;
61523;SDS011;47393;38.758;-9.164;2023-02-28T12:34:21;6.15;;;2.22;;
61523;SDS011;47393;38.758;-9.164;2023-02-28T12:36:32;5.55;;;2.67;;
61523;SDS011;47393;38.758;-9.164;2023-02-28T12:38:49;22.83;;;3.05;;
61523;SDS011;47393;38.758;-9.164;2023-02-28T12:43:32;3.75;;;2.53;;
61523;SDS011;47393;38.758;-9.164;2023-02-28T12:45:43;2.85;;;2.10;;
61523;SDS011;47393;38.758;-9.164;2023-02-28T12:47:57;9.75;;;2.20;;
61523;SDS011;47393;38.758;-9.164;2023-02-28T12:50:22;4.93;;;2.10;;
61523;SDS011;47393;38.758;-9.164;2023-02-28T12:52:59;8.68;;;2.45;;
61523;SDS011;47393;38.758;-9.164;2023-02-28T12:55:35;4.60;;;1.70;;
61523;SDS011;47393;38.758;-9.164;2023-02-28T13:09:38;15.43;;;3.17;;
61523;SDS011;47393;38.758;-9.164;2023-02-28T13:17:34;9.38;;;2.47;;
61523;SDS011;47393;38.758;-9.164;2023-02-28T13:19:48;5.88;;;2.88;;
61523;SDS011;47393;38.758;-9.164;2023-02-28T13:22:48;10.32;;;3.05;;
61523;SDS011;47393;38.758;-9.164;2023-02-28T13:26:02;7.00;;;2.78;;
61523;SDS011;47393;38.758;-9.164;2023-02-28T13:27:42;7.55;;;2.80;;
61523;SDS011;47393;38.758;-9.164;2023-02-28T13:29:56;11.55;;;3.25;;
61523;SDS011;47393;38.758;-9.164;2023-02-28T13:34:36;5.45;;;2.72;;
61523;SDS011;47393;38.758;-9.164;2023-02-28T13:36:44;7.05;;;2.83;;
61523;SDS011;47393;38.758;-9.164;2023-02-28T13:39:11;9.82;;;3.00;;
61523;SDS011;47393;38.758;-9.164;2023-02-28T13:48:53;4.55;;;3.00;;
61523;SDS011;47393;38.758;-9.164;2023-02-28T13:51:42;4.28;;;2.33;;
61523;SDS011;47393;38.758;-9.164;2023-02-28T14:06:54;6.13;;;3.35;;
61523;SDS011;47393;38.758;-9.164;2023-02-28T14:09:03;9.45;;;2.97;;
61523;SDS011;47393;38.758;-9.164;2023-02-28T14:11:23;12.27;;;3.30;;
61523;SDS011;47393;38.758;-9.164;2023-02-28T14:13:46;3.53;;;3.10;;
61523;SDS011;47393;38.758;-9.164;2023-02-28T14:17:59;11.27;;;2.40;;
61523;SDS011;47393;38.758;-9.164;2023-02-28T14:33:44;11.05;;;2.80;;
61523;SDS011;47393;38.758;-9.164;2023-02-28T15:41:04;5.32;;;3.53;;
61523;SDS011;47393;38.758;-9.164;2023-02-28T15:49:25;8.15;;;3.72;;
61523;SDS011;47393;38.758;-9.164;2023-02-28T16:19:44;3.63;;;2.50;;
61523;SDS011;47393;38.758;-9.164;2023-02-28T16:22:56;6.10;;;2.90;;
61523;SDS011;47393;38.758;-9.164;2023-02-28T16:26:10;22.58;;;3.97;;
61523;SDS011;47393;38.758;-9.164;2023-02-28T16:29:08;17.27;;;4.32;;
61523;SDS011;47393;38.758;-9.164;2023-02-28T16:34:31;13.90;;;4.45;;
61523;SDS011;47393;38.758;-9.164;2023-02-28T16:36:47;15.18;;;4.30;;
61523;SDS011;47393;38.758;-9.164;2023-02-28T16:39:02;8.27;;;4.30;;
61523;SDS011;47393;38.758;-9.164;2023-02-28T16:41:34;8.25;;;4.05;;
61523;SDS011;47393;38.758;-9.164;2023-02-28T16:43:35;11.68;;;3.58;;
61523;SDS011;47393;38.758;-9.164;2023-02-28T16:45:36;15.32;;;3.95;;
61523;SDS011;47393;38.758;-9.164;2023-02-28T16:47:39;5.57;;;3.63;;
61523;SDS011;47393;38.758;-9.164;2023-02-28T16:49:49;5.65;;;3.13;;
61523;SDS011;47393;38.758;-9.164;2023-02-28T16:51:50;13.10;;;3.50;;
61523;SDS011;47393;38.758;-9.164;2023-02-28T16:53:54;12.25;;;4.53;;
61523;SDS011;47393;38.758;-9.164;2023-02-28T16:56:02;10.48;;;3.53;;
61523;SDS011;47393;38.758;-9.164;2023-02-28T16:58:10;21.95;;;4.30;;
61523;SDS011;47393;38.758;-9.164;2023-02-28T17:00:17;17.67;;;4.18;;
61523;SDS011;47393;38.758;-9.164;2023-02-28T17:02:24;9.32;;;3.22;;
61523;SDS011;47393;38.758;-9.164;2023-02-28T17:04:32;17.70;;;3.95;;
61523;SDS011;47393;38.758;-9.164;2023-02-28T17:06:37;13.00;;;3.80;;
61523;SDS011;47393;38.758;-9.164;2023-02-28T17:08:38;15.35;;;3.75;;
61523;SDS011;47393;38.758;-9.164;2023-02-28T17:10:39;10.25;;;3.33;;
61523;SDS011;47393;38.758;-9.164;2023-02-28T17:12:47;8.63;;;3.30;;
61523;SDS011;47393;38.758;-9.164;2023-02-28T17:15:11;5.53;;;2.70;;
61523;SDS011;47393;38.758;-9.164;2023-02-28T17:17:35;13.88;;;3.22;;
61523;SDS011;47393;38.758;-9.164;2023-02-28T17:19:48;7.22;;;3.10;;
61523;SDS011;47393;38.758;-9.164;2023-02-28T17:22:02;12.23;;;3.38;;
61523;SDS011;47393;38.758;-9.164;2023-02-28T17:24:19;8.15;;;3.85;;
61523;SDS011;47393;38.758;-9.164;2023-02-28T17:26:40;11.23;;;3.63;;
61523;SDS011;47393;38.758;-9.164;2023-02-28T17:32:04;14.98;;;4.35;;
61523;SDS011;47393;38.758;-9.164;2023-02-28T17:34:35;27.15;;;3.30;;
61523;SDS011;47393;38.758;-9.164;2023-02-28T17:36:51;17.67;;;4.25;;
61523;SDS011;47393;38.758;-9.164;2023-02-28T17:39:15;12.32;;;4.13;;
61523;SDS011;47393;38.758;-9.164;2023-02-28T17:41:29;11.80;;;3.78;;
61523;SDS011;47393;38.758;-9.164;2023-02-28T17:43:51;17.88;;;4.38;;
61523;SDS011;47393;38.758;-9.164;2023-02-28T17:46:05;16.63;;;4.43;;
61523;SDS011;47393;38.758;-9.164;2023-02-28T17:48:14;16.27;;;3.35;;
61523;SDS011;47393;38.758;-9.164;2023-02-28T17:50:25;10.90;;;3.53;;
61523;SDS011;47393;38.758;-9.164;2023-02-28T17:53:09;13.23;;;4.22;;
61523;SDS011;47393;38.758;-9.164;2023-02-28T17:55:22;12.77;;;4.28;;
61523;SDS011;47393;38.758;-9.164;2023-02-28T17:57:26;12.43;;;4.00;;
61523;SDS011;47393;38.758;-9.164;2023-02-28T17:59:44;11.85;;;4.20;;
61523;SDS011;47393;38.758;-9.164;2023-02-28T18:01:58;13.20;;;4.03;;
61523;SDS011;47393;38.758;-9.164;2023-02-28T18:04:07;10.48;;;3.78;;
61523;SDS011;47393;38.758;-9.164;2023-02-28T18:08:47;12.15;;;3.70;;
61523;SDS011;47393;38.758;-9.164;2023-02-28T18:11:12;7.35;;;3.05;;
61523;SDS011;47393;38.758;-9.164;2023-02-28T18:13:19;6.07;;;3.45;;
61523;SDS011;47393;38.758;-9.164;2023-02-28T18:15:30;6.78;;;3.33;;
61523;SDS011;47393;38.758;-9.164;2023-02-28T18:18:03;8.90;;;3.53;;
61523;SDS011;47393;38.758;-9.164;2023-02-28T18:20:10;15.95;;;3.58;;
61523;SDS011;47393;38.758;-9.164;2023-02-28T18:22:24;14.30;;;3.47;;
61523;SDS011;47393;38.758;-9.164;2023-02-28T18:24:26;9.98;;;3.92;;
61523;SDS011;47393;38.758;-9.164;2023-02-28T18:26:46;7.97;;;3.85;;
61523;SDS011;47393;38.758;-9.164;2023-02-28T18:29:25;16.65;;;3.90;;
61523;SDS011;47393;38.758;-9.164;2023-02-28T18:32:04;25.02;;;4.60;;
61523;SDS011;47393;38.758;-9.164;2023-02-28T18:34:31;14.35;;;2.22;;
61523;SDS011;47393;38.758;-9.164;2023-02-28T18:36:46;7.32;;;3.92;;
61523;SDS011;47393;38.758;-9.164;2023-02-28T18:38:56;17.98;;;3.75;;
61523;SDS011;47393;38.758;-9.164;2023-02-28T18:41:09;10.13;;;3.40;;
61523;SDS011;47393;38.758;-9.164;2023-02-28T18:43:44;17.25;;;3.38;;
61523;SDS011;47393;38.758;-9.164;2023-02-28T18:49:14;15.68;;;4.35;;
61523;SDS011;47393;38.758;-9.164;2023-02-28T18:54:57;7.45;;;4.32;;
61523;SDS011;47393;38.758;-9.164;2023-02-28T18:57:23;16.33;;;3.55;;